Time;durP1;ratioP1;P1;durP2;ratioP2;P2;SDS_P1;SDS_P2;PMS_P1;PMS_P2;Temp;Humidity;BMP_temperature;BMP_pressure;BME280_temperature;BME280_humidity;BME280_pressure;Samples;Min_cycle;Max_cycle;Signal;HPM_P1;HPM_P2
2022/04/07 00:02:14;;;;;;;4.45;2.10;;;;;;;8.90;100.00;99225.09;5015487;28;20041;-49
2022/04/07 00:04:40;;;;;;;8.35;1.90;;;;;;;8.83;100.00;99221.56;4999865;28;20416;-48
2022/04/07 00:07:05;;;;;;;7.88;2.22;;;;;;;8.86;100.00;99209.69;5001718;28;20028;-51
2022/04/07 00:09:30;;;;;;;7.35;2.15;;;;;;;8.77;100.00;99190.34;5001542;28;20030;-51
2022/04/07 00:11:56;;;;;;;5.82;2.30;;;;;;;8.60;100.00;99205.75;5000935;28;20026;-49
2022/04/07 00:14:21;;;;;;;7.95;1.75;;;;;;;8.48;100.00;99197.44;5001483;28;20758;-50
2022/04/07 00:16:46;;;;;;;6.40;2.13;;;;;;;8.50;100.00;99189.25;5000845;28;20392;-50
2022/04/07 00:19:11;;;;;;;7.50;2.10;;;;;;;8.53;100.00;99186.22;5000840;28;20053;-49
2022/04/07 00:21:38;;;;;;;13.90;2.10;;;;;;;8.51;100.00;99181.09;5001437;28;20038;-50
2022/04/07 00:24:05;;;;;;;7.93;1.85;;;;;;;8.57;100.00;99179.50;5001104;28;20045;-50
2022/04/07 00:26:31;;;;;;;6.25;1.73;;;;;;;8.53;100.00;99178.25;5000798;28;20034;-50
2022/04/07 00:28:57;;;;;;;8.10;1.75;;;;;;;8.41;100.00;99173.38;5000737;28;20049;-50
2022/04/07 00:31:22;;;;;;;7.47;1.70;;;;;;;8.30;100.00;99162.41;5014692;28;20080;-47
2022/04/07 00:33:48;;;;;;;8.43;1.85;;;;;;;8.19;100.00;99161.06;5000853;28;20084;-51
2022/04/07 00:36:13;;;;;;;6.57;2.05;;;;;;;8.10;100.00;99160.38;4999736;28;20026;-50
2022/04/07 00:38:38;;;;;;;11.60;2.25;;;;;;;8.09;100.00;99145.41;5014877;28;20374;-50
2022/04/07 00:41:04;;;;;;;11.98;2.08;;;;;;;8.04;100.00;99142.50;5016100;28;20046;-49
2022/04/07 00:43:34;;;;;;;6.97;1.90;;;;;;;8.08;100.00;99142.94;5000988;28;20400;-48
2022/04/07 00:46:01;;;;;;;11.35;2.08;;;;;;;8.07;100.00;99128.00;5001020;28;20056;-48
2022/04/07 00:48:27;;;;;;;10.63;2.13;;;;;;;8.05;100.00;99111.44;4999934;28;20282;-49
2022/04/07 00:50:56;;;;;;;9.30;1.90;;;;;;;8.12;100.00;99121.09;4999326;28;20017;-49
2022/04/07 00:53:23;;;;;;;9.93;2.08;;;;;;;8.07;100.00;99126.16;5000433;28;20079;-51
2022/04/07 00:55:53;;;;;;;8.85;2.28;;;;;;;7.98;100.00;99119.31;5000803;28;20273;-51
2022/04/07 00:58:19;;;;;;;9.48;2.17;;;;;;;7.97;100.00;99107.84;5000615;28;20345;-50
2022/04/07 01:00:44;;;;;;;7.00;1.90;;;;;;;7.95;100.00;99101.09;5000450;28;20058;-48
2022/04/07 01:03:10;;;;;;;11.52;2.38;;;;;;;7.96;100.00;99111.53;4999926;28;20076;-52
2022/04/07 01:05:35;;;;;;;9.50;2.38;;;;;;;7.99;100.00;99094.38;4998381;28;20040;-49
2022/04/07 01:08:01;;;;;;;7.63;2.30;;;;;;;7.98;100.00;99103.38;5015443;28;20063;-50
2022/04/07 01:10:28;;;;;;;11.85;2.50;;;;;;;7.99;100.00;99100.53;4999933;28;20034;-49
2022/04/07 01:12:54;;;;;;;10.05;2.90;;;;;;;7.99;100.00;99094.38;5000544;28;20029;-47
2022/04/07 01:15:20;;;;;;;13.88;3.35;;;;;;;7.98;100.00;99092.75;4998657;28;20041;-49
2022/04/07 01:17:45;;;;;;;11.43;2.80;;;;;;;7.97;100.00;99080.44;4999988;28;20034;-50
2022/04/07 01:20:11;;;;;;;9.45;2.85;;;;;;;7.95;100.00;99077.16;4998836;28;20030;-48
2022/04/07 01:22:40;;;;;;;10.07;2.70;;;;;;;7.96;100.00;99076.13;5000257;28;20057;-50
2022/04/07 01:25:06;;;;;;;12.05;2.70;;;;;;;8.01;100.00;99079.06;5013525;28;20164;-47
2022/04/07 01:27:32;;;;;;;8.18;2.30;;;;;;;7.98;100.00;99066.16;5000468;28;20036;-50
2022/04/07 01:30:01;;;;;;;12.35;3.33;;;;;;;7.99;100.00;99073.09;4999580;28;20400;-51
2022/04/07 01:32:44;;;;;;;8.90;2.58;;;;;;;7.98;100.00;99066.16;4999588;28;20049;-50
2022/04/07 01:35:10;;;;;;;11.70;2.60;;;;;;;8.05;100.00;99052.94;4998310;28;20508;-51
2022/04/07 01:37:37;;;;;;;15.15;2.60;;;;;;;7.99;100.00;99059.81;4999135;28;20498;-51
2022/04/07 01:40:04;;;;;;;8.52;2.83;;;;;;;7.92;100.00;99049.09;4998804;28;20512;-51
2022/04/07 01:42:31;;;;;;;12.65;3.00;;;;;;;7.89;100.00;99035.38;5000123;28;20034;-50
2022/04/07 01:45:00;;;;;;;12.45;3.15;;;;;;;7.88;100.00;99025.78;4999316;28;20280;-47
2022/04/07 01:47:26;;;;;;;15.77;3.03;;;;;;;7.90;100.00;99026.41;4999233;28;20022;-47
2022/04/07 01:49:57;;;;;;;9.43;2.53;;;;;;;7.92;100.00;99025.19;4998717;28;20026;-49
2022/04/07 01:52:23;;;;;;;11.68;2.65;;;;;;;8.03;100.00;99023.88;4999932;28;20428;-50
2022/04/07 01:54:48;;;;;;;8.30;2.60;;;;;;;8.12;100.00;99012.09;4997898;28;20032;-50
2022/04/07 01:57:15;;;;;;;12.80;2.83;;;;;;;8.10;100.00;99000.84;4999310;28;20080;-48
2022/04/07 01:59:41;;;;;;;11.85;2.58;;;;;;;8.24;100.00;98998.31;4999291;28;20120;-50
2022/04/07 02:02:06;;;;;;;9.00;2.40;;;;;;;8.32;100.00;98998.16;4999394;28;20025;-48
2022/04/07 02:04:32;;;;;;;10.30;2.50;;;;;;;8.38;100.00;99000.03;4987559;28;20030;-50
2022/04/07 02:06:58;;;;;;;14.13;2.50;;;;;;;8.40;100.00;98979.38;4996386;28;20280;-51
2022/04/07 02:09:23;;;;;;;7.93;2.15;;;;;;;8.47;100.00;98977.66;4998833;28;20037;-50
2022/04/07 02:11:49;;;;;;;6.28;2.13;;;;;;;8.55;100.00;98998.78;4999288;28;20093;-51
2022/04/07 02:14:14;;;;;;;11.20;2.78;;;;;;;8.58;100.00;99000.22;4999530;28;20076;-52
2022/04/07 02:16:39;;;;;;;13.27;2.90;;;;;;;8.54;100.00;98975.84;4997081;28;20451;-49
2022/04/07 02:19:05;;;;;;;16.10;2.60;;;;;;;8.61;100.00;98975.91;4998595;28;20030;-49
2022/04/07 02:21:30;;;;;;;8.95;2.42;;;;;;;8.63;100.00;98965.88;4998923;28;20026;-49
2022/04/07 02:23:56;;;;;;;9.82;2.40;;;;;;;8.59;100.00;98973.44;4999256;28;20112;-48
2022/04/07 02:26:22;;;;;;;10.00;2.30;;;;;;;8.59;100.00;98978.75;4997973;28;20452;-47
2022/04/07 02:28:47;;;;;;;9.85;2.15;;;;;;;8.64;100.00;98977.34;4999366;28;20392;-50
2022/04/07 02:31:12;;;;;;;15.55;2.55;;;;;;;8.64;100.00;98964.03;4998563;28;20087;-49
2022/04/07 02:33:38;;;;;;;12.30;2.70;;;;;;;8.67;100.00;98964.50;4997198;28;20034;-49
2022/04/07 02:36:06;;;;;;;11.00;2.40;;;;;;;8.69;100.00;98966.94;4997684;28;20631;-50
2022/04/07 02:38:33;;;;;;;12.82;2.40;;;;;;;8.66;100.00;98959.34;4997944;28;20120;-48
2022/04/07 02:40:58;;;;;;;11.65;2.72;;;;;;;8.61;100.00;98951.94;4999081;28;20092;-49
2022/04/07 02:43:23;;;;;;;13.82;2.60;;;;;;;8.64;100.00;98956.88;4998879;28;20437;-51
2022/04/07 02:45:49;;;;;;;9.65;2.30;;;;;;;8.65;100.00;98947.88;4997910;28;20033;-49
2022/04/07 02:48:14;;;;;;;11.32;2.33;;;;;;;8.70;100.00;98931.31;4998392;28;20044;-50
2022/04/07 02:50:39;;;;;;;9.80;2.28;;;;;;;8.69;100.00;98914.53;4997861;28;20091;-49
2022/04/07 02:53:05;;;;;;;12.45;2.28;;;;;;;8.68;100.00;98918.22;4998527;28;20369;-50
2022/04/07 02:55:30;;;;;;;11.40;2.50;;;;;;;8.73;100.00;98913.13;4998590;28;20376;-50
2022/04/07 02:57:59;;;;;;;13.23;2.45;;;;;;;8.78;100.00;98909.88;4997222;28;20025;-50
2022/04/07 03:00:24;;;;;;;13.73;2.55;;;;;;;8.78;100.00;98905.38;4997762;28;20072;-50
2022/04/07 03:02:50;;;;;;;10.85;2.45;;;;;;;8.81;100.00;98888.19;4997848;28;20040;-50
2022/04/07 03:05:15;;;;;;;9.05;2.15;;;;;;;8.83;100.00;98883.50;4996557;28;20034;-47
2022/04/07 03:07:41;;;;;;;13.02;2.63;;;;;;;8.86;100.00;98874.28;4997465;28;20100;-48
2022/04/07 03:10:07;;;;;;;16.10;2.80;;;;;;;8.88;100.00;98850.97;4998116;28;20034;-49
2022/04/07 03:12:32;;;;;;;11.95;2.63;;;;;;;8.86;100.00;98877.78;4998421;28;20393;-47
2022/04/07 03:14:57;;;;;;;12.65;2.85;;;;;;;8.81;100.00;98872.22;4998097;28;20101;-50
2022/04/07 03:17:23;;;;;;;17.20;2.58;;;;;;;8.72;100.00;98860.09;4996643;28;20030;-47
2022/04/07 03:19:48;;;;;;;10.00;2.33;;;;;;;8.75;100.00;98859.69;4996912;28;20049;-47
2022/04/07 03:22:15;;;;;;;11.73;2.47;;;;;;;8.83;100.00;98838.25;4997977;28;20030;-48
2022/04/07 03:24:41;;;;;;;13.23;2.58;;;;;;;8.91;100.00;98827.41;4997797;28;20284;-49
2022/04/07 03:27:07;;;;;;;9.43;2.45;;;;;;;9.02;100.00;98841.97;4996421;28;20046;-49
2022/04/07 03:29:32;;;;;;;11.70;2.55;;;;;;;9.04;100.00;98831.94;4998855;28;20030;-48
2022/04/07 03:31:58;;;;;;;12.65;2.60;;;;;;;9.03;100.00;98848.97;4996378;28;20476;-49
2022/04/07 03:34:24;;;;;;;12.90;2.40;;;;;;;9.09;100.00;98808.19;4995028;28;20089;-51
2022/04/07 03:36:49;;;;;;;12.40;2.30;;;;;;;9.13;100.00;98800.63;4994883;28;20029;-48
2022/04/07 03:39:14;;;;;;;11.90;1.92;;;;;;;9.14;100.00;98818.25;4997737;28;20033;-51
2022/04/07 03:41:40;;;;;;;12.88;2.38;;;;;;;9.11;100.00;98826.63;4997988;28;20473;-51
2022/04/07 03:44:07;;;;;;;16.67;2.55;;;;;;;9.10;100.00;98817.03;4998142;28;20034;-51
2022/04/07 03:46:33;;;;;;;15.05;3.00;;;;;;;9.10;100.00;98801.84;4997262;28;20060;-50
2022/04/07 03:48:58;;;;;;;13.20;2.70;;;;;;;9.12;100.00;98801.66;4997926;28;20477;-48
2022/04/07 03:51:24;;;;;;;15.32;2.28;;;;;;;9.04;100.00;98800.00;4997897;28;20052;-48
2022/04/07 03:53:49;;;;;;;12.27;2.10;;;;;;;8.98;100.00;98800.81;4998603;28;20044;-48
2022/04/07 03:56:14;;;;;;;20.95;3.63;;;;;;;8.90;100.00;98801.00;4996890;28;20030;-50
2022/04/07 03:58:39;;;;;;;10.93;2.17;;;;;;;8.71;100.00;98783.94;4997619;28;20448;-52
2022/04/07 04:01:05;;;;;;;11.45;2.45;;;;;;;8.65;100.00;98777.56;4997754;28;20060;-48
2022/04/07 04:03:30;;;;;;;13.98;2.70;;;;;;;8.62;100.00;98777.97;4996423;28;20032;-51
2022/04/07 04:05:55;;;;;;;12.25;2.60;;;;;;;8.53;100.00;98782.63;4996869;28;20468;-50
2022/04/07 04:08:21;;;;;;;11.65;2.38;;;;;;;8.57;100.00;98777.72;4997101;28;20123;-48
2022/04/07 04:10:46;;;;;;;16.02;2.75;;;;;;;8.60;100.00;98756.06;4997732;28;20071;-48
2022/04/07 04:13:12;;;;;;;16.73;2.53;;;;;;;8.67;100.00;98732.97;5009378;28;20088;-48
2022/04/07 04:15:37;;;;;;;15.32;3.30;;;;;;;8.70;100.00;98729.06;4982617;28;20180;-50
2022/04/07 04:18:03;;;;;;;9.38;2.17;;;;;;;8.74;100.00;98695.69;4996683;28;20092;-51
2022/04/07 04:20:28;;;;;;;10.27;2.30;;;;;;;8.79;100.00;98679.94;5000081;28;20725;-49
2022/04/07 04:22:53;;;;;;;10.80;2.70;;;;;;;8.83;100.00;98664.41;5016474;28;20207;-47
2022/04/07 04:25:19;;;;;;;9.45;2.63;;;;;;;8.90;100.00;98674.03;5000311;28;20036;-48
2022/04/07 04:27:44;;;;;;;12.50;2.30;;;;;;;8.99;100.00;98671.16;5000951;28;20040;-47
2022/04/07 04:30:10;;;;;;;12.10;1.83;;;;;;;8.99;100.00;98666.66;5000523;28;20040;-47
2022/04/07 04:32:36;;;;;;;7.13;2.05;;;;;;;9.04;100.00;98666.03;5002888;28;20034;-50
2022/04/07 04:35:02;;;;;;;10.05;1.90;;;;;;;9.08;100.00;98643.31;4996564;28;20377;-50
2022/04/07 04:37:27;;;;;;;11.43;2.10;;;;;;;9.17;100.00;98639.41;4999693;28;20057;-50
2022/04/07 04:39:53;;;;;;;6.57;2.13;;;;;;;9.14;100.00;98650.47;4999315;28;20120;-50
2022/04/07 04:42:19;;;;;;;8.55;1.92;;;;;;;9.22;100.00;98639.63;4999516;28;20484;-47
2022/04/07 04:44:45;;;;;;;5.45;1.85;;;;;;;9.24;100.00;98639.41;5001091;28;20033;-48
2022/04/07 04:47:11;;;;;;;8.70;1.80;;;;;;;9.17;100.00;98627.97;4999457;28;20038;-48
2022/04/07 04:49:40;;;;;;;5.90;1.92;;;;;;;8.87;100.00;98615.06;4999116;28;20025;-50
2022/04/07 04:52:06;;;;;;;7.00;1.90;;;;;;;8.74;100.00;98610.53;5000681;28;20041;-47
2022/04/07 04:54:32;;;;;;;7.85;1.75;;;;;;;8.64;100.00;98610.97;4999159;28;20064;-49
2022/04/07 04:56:58;;;;;;;4.07;1.58;;;;;;;8.65;100.00;98617.09;5000045;28;20050;-51
2022/04/07 04:59:23;;;;;;;4.82;1.75;;;;;;;8.66;100.00;98626.72;4999652;28;20508;-49
2022/04/07 05:01:48;;;;;;;5.35;1.70;;;;;;;8.64;100.00;98588.84;4999661;28;20065;-48
2022/04/07 05:04:13;;;;;;;3.67;1.67;;;;;;;8.64;100.00;98573.72;4999197;28;20018;-49
2022/04/07 05:06:39;;;;;;;7.10;1.42;;;;;;;8.68;100.00;98556.31;4999358;28;20219;-47
2022/04/07 05:09:04;;;;;;;4.05;1.70;;;;;;;8.75;100.00;98545.66;5000503;28;20133;-48
2022/04/07 05:11:29;;;;;;;3.75;1.20;;;;;;;8.87;100.00;98554.66;4998917;28;20117;-47
2022/04/07 05:13:55;;;;;;;5.95;1.30;;;;;;;8.95;100.00;98566.94;4999943;28;20025;-50
2022/04/07 05:16:20;;;;;;;2.03;1.27;;;;;;;8.95;100.00;98558.94;4998599;28;20119;-51
2022/04/07 05:18:47;;;;;;;7.32;1.65;;;;;;;8.94;100.00;98550.16;4994417;28;20483;-52
2022/04/07 05:21:14;;;;;;;5.55;1.60;;;;;;;8.88;100.00;98529.69;5009314;28;20072;-47
2022/04/07 05:23:39;;;;;;;3.38;1.38;;;;;;;8.71;100.00;98526.63;4999443;28;20026;-42
2022/04/07 05:26:05;;;;;;;4.85;1.50;;;;;;;8.62;100.00;98535.00;4999380;28;20044;-43
2022/04/07 05:28:30;;;;;;;6.32;1.60;;;;;;;8.44;100.00;98527.66;4999750;28;20504;-45
2022/04/07 05:30:56;;;;;;;4.25;1.70;;;;;;;8.28;100.00;98502.25;4998225;28;20117;-41
2022/04/07 05:33:21;;;;;;;4.07;1.60;;;;;;;8.23;100.00;98505.50;4998082;28;20485;-44
2022/04/07 05:35:46;;;;;;;4.13;1.50;;;;;;;8.20;100.00;98500.63;4997375;28;20206;-43
2022/04/07 05:38:12;;;;;;;5.25;1.70;;;;;;;8.09;100.00;98517.97;4998641;28;20037;-43
2022/04/07 05:40:37;;;;;;;4.40;2.00;;;;;;;8.05;100.00;98484.84;4997136;28;20112;-43
2022/04/07 05:43:04;;;;;;;4.57;2.10;;;;;;;7.98;100.00;98486.69;4998769;28;20030;-42
2022/04/07 05:45:29;;;;;;;3.53;2.00;;;;;;;7.97;100.00;98461.94;4997675;28;20037;-43
2022/04/07 05:47:55;;;;;;;4.80;1.90;;;;;;;7.99;100.00;98472.38;4997120;28;20485;-43
2022/04/07 05:50:20;;;;;;;5.22;2.08;;;;;;;7.92;100.00;98469.69;4997392;28;20026;-44
2022/04/07 05:52:46;;;;;;;6.78;2.30;;;;;;;7.91;100.00;98454.78;4999044;28;20488;-47
2022/04/07 05:55:11;;;;;;;6.80;2.45;;;;;;;7.88;100.00;98449.88;4998321;28;20095;-44
2022/04/07 05:57:36;;;;;;;5.82;2.60;;;;;;;7.88;100.00;98446.41;4997611;28;20484;-43
2022/04/07 06:00:11;;;;;;;11.13;3.22;;;;;;;7.80;100.00;98434.94;5012833;28;20519;-43
2022/04/07 06:02:38;;;;;;;7.45;2.40;;;;;;;7.77;100.00;98424.72;4997571;28;20021;-42
2022/04/07 06:05:05;;;;;;;5.90;2.70;;;;;;;7.77;100.00;98443.34;4997433;28;20041;-42
2022/04/07 06:07:30;;;;;;;10.93;2.90;;;;;;;7.77;100.00;98427.38;4998626;28;20159;-43
2022/04/07 06:09:55;;;;;;;5.90;2.70;;;;;;;7.77;100.00;98415.91;4998444;28;20100;-44
2022/04/07 06:12:21;;;;;;;9.80;2.90;;;;;;;7.73;100.00;98407.53;4998040;28;20091;-45
2022/04/07 06:14:46;;;;;;;12.15;3.40;;;;;;;7.68;100.00;98404.69;4998569;28;20017;-43
2022/04/07 06:17:11;;;;;;;7.50;2.70;;;;;;;7.70;100.00;98393.84;4997851;28;20643;-44
2022/04/07 06:19:36;;;;;;;8.70;3.33;;;;;;;7.69;100.00;98401.00;4997131;28;20068;-44
2022/04/07 06:22:05;;;;;;;10.45;3.33;;;;;;;7.68;100.00;98394.03;4997773;28;20495;-44
2022/04/07 06:24:30;;;;;;;9.63;2.70;;;;;;;7.65;100.00;98389.97;4996427;28;20037;-43
2022/04/07 06:26:55;;;;;;;9.73;3.20;;;;;;;7.66;100.00;98385.47;4997872;28;20022;-43
2022/04/07 06:29:21;;;;;;;9.65;3.08;;;;;;;7.68;100.00;98372.00;4996738;28;20041;-45
2022/04/07 06:31:46;;;;;;;11.07;3.20;;;;;;;7.70;100.00;98368.09;4997830;28;20025;-44
2022/04/07 06:34:11;;;;;;;8.88;3.13;;;;;;;7.69;100.00;98373.59;4997581;28;20340;-44
2022/04/07 06:36:36;;;;;;;11.98;3.25;;;;;;;7.64;100.00;98364.41;4998004;28;20361;-44
2022/04/07 06:39:03;;;;;;;12.77;3.30;;;;;;;7.62;100.00;98370.94;4998156;28;20126;-45
2022/04/07 06:41:28;;;;;;;10.75;3.63;;;;;;;7.64;100.00;98337.03;4998201;28;20053;-43
2022/04/07 06:43:54;;;;;;;9.70;3.00;;;;;;;7.62;100.00;98331.09;4998680;28;20432;-45
2022/04/07 06:46:19;;;;;;;13.98;3.78;;;;;;;7.63;100.00;98327.44;4996454;28;20066;-45
2022/04/07 06:48:44;;;;;;;11.77;3.78;;;;;;;7.67;100.00;98315.38;4997354;28;21344;-43
2022/04/07 06:51:09;;;;;;;8.80;3.10;;;;;;;7.70;100.00;98296.38;4998761;28;20149;-47
2022/04/07 06:53:35;;;;;;;10.45;3.08;;;;;;;7.65;100.00;98283.72;4998404;28;20076;-43
2022/04/07 06:56:00;;;;;;;10.23;3.03;;;;;;;7.68;100.00;98279.81;4998430;28;20268;-42
2022/04/07 06:58:26;;;;;;;12.20;3.60;;;;;;;7.69;100.00;98284.13;4998041;28;20437;-45
2022/04/07 07:00:51;;;;;;;7.82;3.35;;;;;;;7.65;100.00;98259.81;4997584;28;20473;-46
2022/04/07 07:03:16;;;;;;;9.13;2.70;;;;;;;7.70;100.00;98263.69;4996439;28;20141;-46
2022/04/07 07:05:42;;;;;;;13.98;2.75;;;;;;;7.70;100.00;98263.69;4997886;28;20255;-47
2022/04/07 07:08:14;;;;;;;6.65;2.35;;;;;;;7.64;100.00;98267.97;4998244;28;20052;-44
2022/04/07 07:10:40;;;;;;;10.32;2.75;;;;;;;7.59;100.00;98259.81;4997898;28;20316;-44
2022/04/07 07:13:06;;;;;;;7.40;2.05;;;;;;;7.57;100.00;98253.88;4998630;28;20485;-43
2022/04/07 07:15:32;;;;;;;9.10;2.10;;;;;;;7.52;100.00;98237.72;4997777;28;20054;-48
2022/04/07 07:17:57;;;;;;;7.80;2.30;;;;;;;7.53;100.00;98237.53;4994992;28;20667;-44
2022/04/07 07:20:22;;;;;;;7.57;2.47;;;;;;;7.51;100.00;98236.13;4997832;28;20114;-45
2022/04/07 07:22:47;;;;;;;8.55;2.70;;;;;;;7.50;100.00;98245.91;4998118;28;20044;-43
2022/04/07 07:25:13;;;;;;;6.72;2.30;;;;;;;7.52;100.00;98290.84;4997731;28;20038;-42
2022/04/07 07:27:41;;;;;;;8.93;2.72;;;;;;;7.51;100.00;98305.16;4997153;28;20809;-46
2022/04/07 07:30:09;;;;;;;2.72;0.63;;;;;;;6.86;100.00;98324.25;4997217;28;20030;-41
2022/04/07 07:32:36;;;;;;;13.50;0.73;;;;;;;6.18;100.00;98297.63;4984093;28;20431;-43
2022/04/07 07:35:01;;;;;;;9.55;0.80;;;;;;;5.54;100.00;98321.41;4977608;28;20054;-46
2022/04/07 07:37:26;;;;;;;2.58;0.40;;;;;;;5.29;100.00;98304.28;4978586;28;20124;-44
2022/04/07 07:39:52;;;;;;;2.83;0.50;;;;;;;5.16;100.00;98278.50;4978428;28;20107;-46
2022/04/07 07:42:17;;;;;;;2.15;0.60;;;;;;;5.10;100.00;98284.59;4978391;28;20026;-44
2022/04/07 07:44:42;;;;;;;3.13;0.70;;;;;;;5.10;100.00;98282.75;4977578;28;20099;-44
2022/04/07 07:47:07;;;;;;;4.32;0.73;;;;;;;5.11;100.00;98316.13;4976853;28;20334;-42
2022/04/07 07:49:33;;;;;;;1.73;0.63;;;;;;;5.08;100.00;98350.91;4977272;28;20481;-47
2022/04/07 07:51:59;;;;;;;4.88;0.75;;;;;;;5.04;100.00;98389.31;4978539;28;20054;-46
2022/04/07 07:54:24;;;;;;;4.80;0.98;;;;;;;4.99;100.00;98368.72;4980458;28;20372;-44
2022/04/07 07:56:49;;;;;;;3.33;0.75;;;;;;;4.99;100.00;98358.13;4987414;28;20088;-46
2022/04/07 07:59:15;;;;;;;5.78;1.42;;;;;;;4.97;100.00;98348.72;5000576;28;20050;-43
2022/04/07 08:01:43;;;;;;;5.20;1.10;;;;;;;4.97;100.00;98324.94;5000536;28;20636;-44
2022/04/07 08:04:08;;;;;;;3.10;1.00;;;;;;;5.01;100.00;98323.56;5000377;28;20149;-44
2022/04/07 08:06:34;;;;;;;5.90;1.30;;;;;;;5.02;100.00;98314.59;5000907;28;20124;-43
2022/04/07 08:08:59;;;;;;;6.60;1.13;;;;;;;5.12;100.00;98322.25;5002093;28;20053;-46
2022/04/07 08:11:25;;;;;;;10.25;1.23;;;;;;;5.17;100.00;98314.56;5001037;28;20724;-46
2022/04/07 08:13:50;;;;;;;6.95;1.30;;;;;;;5.19;100.00;98307.25;5001723;28;20036;-44
2022/04/07 08:16:16;;;;;;;4.65;1.30;;;;;;;5.27;100.00;98307.13;4998320;28;20441;-45
2022/04/07 08:18:41;;;;;;;8.73;1.40;;;;;;;5.37;100.00;98309.47;4999688;28;20025;-43
2022/04/07 08:21:06;;;;;;;7.32;1.60;;;;;;;5.51;100.00;98313.84;5000990;28;20091;-42
2022/04/07 08:23:31;;;;;;;6.30;1.60;;;;;;;5.65;100.00;98303.38;5000802;28;20014;-46
2022/04/07 08:25:56;;;;;;;7.10;1.90;;;;;;;5.75;100.00;98327.69;4998664;28;20096;-43
2022/04/07 08:28:22;;;;;;;5.00;1.63;;;;;;;5.89;100.00;98313.53;5001068;28;20042;-45
2022/04/07 08:30:47;;;;;;;5.85;1.60;;;;;;;6.03;100.00;98314.47;5015953;28;20152;-44
2022/04/07 08:33:12;;;;;;;10.80;1.92;;;;;;;6.04;100.00;98280.84;4999027;28;20029;-42
2022/04/07 08:35:38;;;;;;;9.13;1.83;;;;;;;6.01;100.00;98284.72;5000652;28;20342;-43
2022/04/07 08:38:04;;;;;;;7.63;2.00;;;;;;;6.04;100.00;98302.88;5001068;28;20484;-42
2022/04/07 08:40:30;;;;;;;8.82;2.50;;;;;;;6.16;100.00;98297.81;5000539;28;20520;-42
2022/04/07 08:42:56;;;;;;;6.97;2.50;;;;;;;6.24;100.00;98310.09;5001421;28;20384;-45
2022/04/07 08:45:22;;;;;;;9.20;2.53;;;;;;;6.25;100.00;98309.91;5000633;28;20022;-42
2022/04/07 08:47:48;;;;;;;5.70;2.50;;;;;;;6.32;100.00;98294.84;4998764;28;20017;-44
2022/04/07 08:50:14;;;;;;;6.32;1.90;;;;;;;6.37;100.00;98293.47;4999954;28;20026;-43
2022/04/07 08:52:40;;;;;;;4.78;1.80;;;;;;;6.44;100.00;98299.59;4996705;28;20060;-44
2022/04/07 08:55:06;;;;;;;6.60;1.52;;;;;;;6.61;100.00;98300.06;4980726;28;20022;-41
2022/04/07 08:57:32;;;;;;;9.35;1.80;;;;;;;6.85;100.00;98282.81;4981285;28;20112;-42
2022/04/07 08:59:57;;;;;;;5.95;1.58;;;;;;;6.97;100.00;98302.41;4980072;28;20498;-42
2022/04/07 09:02:23;;;;;;;10.60;1.45;;;;;;;7.03;100.00;98306.94;4979722;28;20034;-43
2022/04/07 09:04:49;;;;;;;4.75;0.93;;;;;;;6.99;100.00;98292.44;4991601;28;20029;-44
2022/04/07 09:07:15;;;;;;;4.40;1.20;;;;;;;7.05;100.00;98299.59;5000519;28;20565;-46
2022/04/07 09:09:41;;;;;;;8.45;1.33;;;;;;;7.25;100.00;98307.59;4999314;28;20478;-45
2022/04/07 09:12:07;;;;;;;8.93;1.67;;;;;;;7.49;100.00;98305.38;5000479;28;20033;-44
2022/04/07 09:14:34;;;;;;;5.18;1.15;;;;;;;7.60;100.00;98310.06;5000681;28;20645;-44
2022/04/07 09:16:59;;;;;;;5.45;1.20;;;;;;;7.63;100.00;98290.25;4999510;28;20516;-43
2022/04/07 09:19:25;;;;;;;6.95;1.20;;;;;;;7.81;100.00;98306.38;4998299;28;20148;-47
2022/04/07 09:22:13;;;;;;;7.65;1.60;;;;;;;8.20;100.00;98294.03;4999694;28;20034;-45
2022/04/07 09:24:40;;;;;;;8.40;1.38;;;;;;;8.59;100.00;98312.78;4999321;28;20061;-43
2022/04/07 09:27:08;;;;;;;5.40;1.15;;;;;;;8.93;100.00;98314.25;4999145;28;20443;-43
2022/04/07 09:29:45;;;;;;;8.95;1.33;;;;;;;9.28;100.00;98321.84;4999121;28;20029;-43
2022/04/07 09:32:23;;;;;;;4.72;1.15;;;;;;;9.54;100.00;98333.34;5013592;28;20034;-44
2022/04/07 09:34:54;;;;;;;5.00;1.27;;;;;;;9.52;100.00;98352.22;4997795;28;20076;-44
2022/04/07 09:37:21;;;;;;;4.95;1.15;;;;;;;9.30;100.00;98325.09;4998790;28;20520;-45
2022/04/07 09:39:47;;;;;;;4.40;1.13;;;;;;;9.24;100.00;98335.81;4998681;28;20030;-46
2022/04/07 09:42:20;;;;;;;5.70;1.40;;;;;;;9.19;100.00;98331.09;4995532;28;20054;-43
2022/04/07 09:44:51;;;;;;;5.45;0.90;;;;;;;9.23;100.00;98334.16;4978069;28;20084;-42
2022/04/07 09:47:17;;;;;;;7.53;1.23;;;;;;;9.20;100.00;98329.25;4978056;28;20341;-45
2022/04/07 09:49:42;;;;;;;5.95;1.45;;;;;;;9.32;100.00;98323.03;4977734;28;20030;-43
2022/04/07 09:52:10;;;;;;;8.55;1.40;;;;;;;9.60;100.00;98343.13;4979365;28;20034;-43
2022/04/07 09:54:37;;;;;;;5.15;1.10;;;;;;;9.75;100.00;98323.34;4978436;28;20383;-44
2022/04/07 09:57:04;;;;;;;5.38;0.90;;;;;;;9.84;100.00;98343.34;4979659;28;20117;-44
2022/04/07 09:59:30;;;;;;;8.73;1.30;;;;;;;10.03;100.00;98323.72;4978381;28;20054;-46
2022/04/07 10:01:56;;;;;;;8.23;1.38;;;;;;;10.35;100.00;98325.47;4978165;28;20238;-45
2022/04/07 10:04:22;;;;;;;6.13;0.93;;;;;;;10.46;100.00;98324.72;4987061;28;20477;-43
2022/04/07 10:06:48;;;;;;;8.90;1.20;;;;;;;10.31;96.55;98325.06;4998688;28;20303;-45
2022/04/07 10:09:14;;;;;;;11.30;1.23;;;;;;;10.25;94.57;98341.94;4998092;28;20384;-47
2022/04/07 10:11:41;;;;;;;6.88;1.27;;;;;;;10.16;95.82;98341.41;4998106;28;20030;-47
2022/04/07 10:14:08;;;;;;;5.00;0.88;;;;;;;10.04;94.74;98337.84;4997743;28;20033;-46
2022/04/07 10:16:33;;;;;;;8.10;1.23;;;;;;;9.95;95.02;98358.66;4996962;28;20586;-45
2022/04/07 10:19:25;;;;;;;4.95;1.33;;;;;;;9.88;91.13;98337.38;4997853;28;20025;-43
2022/04/07 10:22:26;;;;;;;14.32;2.00;;;;;;;9.83;94.61;98347.88;4997964;28;20049;-45
2022/04/07 10:24:56;;;;;;;9.88;1.85;;;;;;;10.12;91.04;98371.44;4998077;28;20100;-45
2022/04/07 10:27:25;;;;;;;9.07;1.67;;;;;;;10.40;91.44;98374.47;4998367;28;20072;-47
2022/04/07 10:30:04;;;;;;;8.57;1.45;;;;;;;10.45;86.93;98361.28;4996970;28;20065;-48
2022/04/07 10:32:35;;;;;;;7.28;1.20;;;;;;;10.53;88.97;98376.16;5011490;28;20038;-48
2022/04/07 10:35:00;;;;;;;8.65;1.40;;;;;;;10.56;86.91;98365.06;4997805;28;20037;-47
2022/04/07 10:37:35;;;;;;;7.90;1.83;;;;;;;10.53;81.74;98392.19;4998123;28;20041;-45
2022/04/07 10:40:35;;;;;;;8.68;1.60;;;;;;;10.54;81.97;98395.66;5011992;28;20457;-43
2022/04/07 10:43:03;;;;;;;7.05;1.38;;;;;;;10.85;81.12;98362.69;4997988;28;20061;-46
2022/04/07 10:45:35;;;;;;;7.47;1.42;;;;;;;11.14;78.27;98400.34;4997292;28;20022;-45
2022/04/07 10:48:30;;;;;;;10.10;1.60;;;;;;;10.99;78.76;98400.72;4997395;28;20033;-43
2022/04/07 10:50:59;;;;;;;9.50;1.50;;;;;;;10.64;82.35;98399.47;4996954;28;20121;-44
2022/04/07 10:53:33;;;;;;;9.77;2.00;;;;;;;10.48;84.02;98402.72;4996880;28;20030;-47
2022/04/07 10:55:59;;;;;;;12.25;1.60;;;;;;;10.50;86.00;98418.50;4997216;28;20052;-43
2022/04/07 10:58:44;;;;;;;10.32;2.05;;;;;;;10.60;83.86;98424.94;4997564;28;20080;-43
2022/04/07 11:01:33;;;;;;;10.75;1.67;;;;;;;10.51;84.11;98412.94;4996050;28;20054;-45
2022/04/07 11:04:36;;;;;;;11.35;1.75;;;;;;;10.50;82.42;98438.00;4988689;28;20053;-42
2022/04/07 11:07:04;;;;;;;13.43;2.40;;;;;;;10.43;85.16;98429.22;4966691;28;20448;-43
2022/04/07 11:09:54;;;;;;;11.10;2.60;;;;;;;10.33;83.98;98434.25;4997360;28;20033;-44
2022/04/07 11:12:33;;;;;;;10.15;1.80;;;;;;;10.26;85.04;98431.63;4996981;28;20065;-45
2022/04/07 11:15:01;;;;;;;12.02;1.70;;;;;;;10.09;92.45;98434.81;4998316;28;20698;-43
2022/04/07 11:17:33;;;;;;;12.98;2.00;;;;;;;9.97;91.21;98449.09;4996076;28;20057;-43
2022/04/07 11:20:15;;;;;;;14.75;2.15;;;;;;;9.92;88.13;98449.72;4996946;28;20544;-46
2022/04/07 11:22:52;;;;;;;11.63;2.08;;;;;;;9.89;90.16;98445.66;5012204;28;20390;-44
2022/04/07 11:25:29;;;;;;;12.73;1.70;;;;;;;9.77;88.11;98473.19;4996041;28;20044;-45
2022/04/07 11:28:03;;;;;;;10.73;1.77;;;;;;;9.63;87.02;98478.59;4996922;28;20495;-45
2022/04/07 11:30:37;;;;;;;10.23;2.08;;;;;;;9.56;88.29;98483.16;5000589;28;20041;-44